Airfield :
LOGIN :

Register | Disclaimer

   EN    FR    IT 

 










Legend :    VFR   Marginal VFR   IFR   Intensive IFR   Very Intensive IFR
Visi :
Ceiling :
>= 8 km
>= 3000ft
5 to 8 km
1000 to 3000 ft
1500m to 5 km
500 to 1000 ft
800 to 1500m
200 to 500 ft
< 800m
< 200 ft
Symbols :   Thunderstorms  Fog  Heavy snow  Heavy precipitations  Wind > 20 kt
SIGMETs :     Misc.  Thunderstorms  Icing  Turbulence  Mountain Waves  Volcanic Ashes






- Airport Elevation : 659 ft
- IATA code : LGG


EBLG - Liège

CURRENT METAR :
  • 130720Z 20009KT 9999 -RA BKN013 BKN020 05/04 Q0972 TEMPO 4000 RA BKN010

EXPIRED METARs :
  • 130650Z 18010KT 9999 -RA FEW008 BKN013 BKN018 05/03 Q0972 TEMPO 4000 RA BKN010
  • 130620Z 20008KT 160V230 8000 -RA FEW008 BKN013 04/03 Q0972 TEMPO 4000 RA BKN010
  • 130550Z 15010KT 9999 -RA FEW010 BKN016 04/03 Q0972 TEMPO 4000 RA BKN010
  • 130520Z 16012G23KT 120V190 9999 -RA SCT008 BKN010 BKN020 04/03 Q0972 TEMPO 4000 RA
  • 130450Z 15009KT 120V180 5000 -RA SCT008 BKN010 04/03 Q0973 TEMPO 4000 RA

TAF TAF EBLG
Valid from the 13 at 06:00 until the 14 at 12:00 UTC


130500Z 1306/1412 17010KT 9999 SCT012 BKN020
TEMPO 1306/1317 4500 RA SHRA SCT007 BKN012CB
BECMG 1306/1308 23010KT
TEMPO 1307/1312 23015G25KT
TEMPO 1312/1317 28020G32KT
PROB30
TEMPO 1317/1320 26015G25KT 4500 SHRA BKN014
PROB30
TEMPO 1403/1412 24015G25KT 4500 SHRA



MET'MAP, your aeronautical weather chart ! - Copyright ORBIFLY December 2007 - Disclaimer

ORBIFLY MET'MAP TEAM :

Programming & Development : Alexandra Zaïnal
Concept & original design : Baudouin d'Aumeries
Assistance for programming : Marc-Olivier Méhu
Technical & hardware support : Manuel Goepfert

Contact : metmap@orbifly.com




SOURCES & CREDITS :

   NOAA